Crane, TX

11:42 AM CDT on August 29, 2014 (GMT -0500)
Odessa-Schlemeyer | Change Station
CLOSE
Current Station
Airport
Location: Odessa,
Elevation: 2999 ft
Nearby Weather Stations

Elev 2999 ft 31.92 °N, 102.39 °W | Updated 39 minutes ago

Mostly Cloudy
Mostly Cloudy
80 °F
Feels Like 82 °F
N
0
Wind Variable Wind from North

Today
High -- | Low -- °F
--% Chance of Precip.
Yesterday
High -- | Low -- °F
Precip. -- in
7:23 AM 8:16 PM
Waxing Crescent, 15% visible
Pressure 30.01 in
Visibility 10.0 miles
Clouds Mostly Cloudy 2600 ft
Heat Index 82 °F
Dew Point 66 °F
Humidity 62%
Rainfall 0.00 in
Snow Depth Not available.
UV 4 out of 12
Pollen 9.60 out of 12
Air Quality Not available.
Flu Activity Not available.
SPECI KODO 291603Z AUTO 00000KT 10SM BKN026 27/19 A3001 RMK AO2 T02670189

More Conditions Fewer Conditions

Pressure 30.01 in
Visibility 10.0 miles
Clouds Mostly Cloudy 2600 ft
Heat Index 82 °F
Dew Point 66 °F
Humidity 62%
Rainfall 0.00 in
Snow Depth Not available.
UV 4 out of 12
Pollen 9.60 out of 12
Air Quality Not available.
Flu Activity Not available.
SPECI KODO 291603Z AUTO 00000KT 10SM BKN026 27/19 A3001 RMK AO2 T02670189

More Conditions Fewer Conditions

10-Day Weather Forecast

Almanac

Astronomy

Aug. 29, 2014 Rise Set
Actual Time 7:23 AM CDT 8:16 PM CDT
Civil Twilight 6:58 AM CDT 8:41 PM CDT
Nautical Twilight 6:29 AM CDT 9:10 PM CDT
Astronomical Twilight 5:59 AM CDT 9:40 PM CDT
Moon 10:57 AM CDT 10:33 PM CDT
Length of Visible Light 13h 42m
Length of Day
12h 53m
Tomorrow will be 1m 49s shorter.
Waxing Crescent, 15% of the Moon is Illuminated
Today
Waxing Crescent
Sep 2
First Quarter
Sep 8
Full
Sep 15
Last Quarter
Sep 24
New

Today's Extremes

State Highs State Lows

Community

WunderPhotos

Upload Photos

1,748,285 photos uploaded!

Nearby

Snow Depth

Station Depth Elevation
No new snow has been reported.

Earthquake Activity

City Distance Mag. Time & Date
No recent earthquake activity has been reported nearby.
Minimum magnitude displayed is 2.5.

Coastal Water Temperatures

Place Temperature
No Stations Reporting

Nearby Weather Stations